Time;durP1;ratioP1;P1;durP2;ratioP2;P2;SDS_P1;SDS_P2;PMS_P1;PMS_P2;Temp;Humidity;BMP_temperature;BMP_pressure;BME280_temperature;BME280_humidity;BME280_pressure;Samples;Min_cycle;Max_cycle;Signal;HPM_P1;HPM_P2
2023/10/20 00:01:32;;;;;;;20.25;12.50;;;;;;;13.74;100.00;98438.38;5049293;28;20047;-73
2023/10/20 00:03:58;;;;;;;20.30;13.57;;;;;;;13.76;100.00;98452.72;5035520;28;20498;-74
2023/10/20 00:06:24;;;;;;;28.17;14.00;;;;;;;13.78;100.00;98453.38;5012436;28;20037;-72
2023/10/20 00:08:49;;;;;;;31.55;15.27;;;;;;;13.77;100.00;98452.53;5055244;28;20516;-73
2023/10/20 00:11:14;;;;;;;20.17;12.43;;;;;;;13.78;100.00;98464.31;5031075;28;20073;-73
2023/10/20 00:13:40;;;;;;;20.33;13.13;;;;;;;13.77;100.00;98449.78;5046344;28;20041;-73
2023/10/20 00:16:06;;;;;;;22.17;13.18;;;;;;;13.76;100.00;98441.78;5050252;28;20040;-73
2023/10/20 00:18:32;;;;;;;21.85;13.70;;;;;;;13.75;100.00;98427.25;5047122;28;20029;-72
2023/10/20 00:20:57;;;;;;;24.00;14.23;;;;;;;13.75;100.00;98434.63;5049896;28;20082;-72
2023/10/20 00:23:23;;;;;;;24.63;14.20;;;;;;;13.76;100.00;98430.88;5045053;28;20041;-72
2023/10/20 00:25:49;;;;;;;21.05;13.25;;;;;;;13.76;100.00;98418.03;5030693;28;20120;-74
2023/10/20 00:28:14;;;;;;;24.33;14.38;;;;;;;13.75;100.00;98410.88;5034529;28;20500;-72
2023/10/20 00:30:41;;;;;;;25.10;12.73;;;;;;;13.74;100.00;98409.19;5048291;28;20049;-71
2023/10/20 00:33:07;;;;;;;21.52;13.18;;;;;;;13.74;100.00;98403.72;5038581;28;20128;-72
2023/10/20 00:35:32;;;;;;;20.75;13.90;;;;;;;13.74;100.00;98391.94;5027793;28;20112;-72
2023/10/20 00:37:58;;;;;;;24.85;14.48;;;;;;;13.72;100.00;98392.13;5033058;28;20045;-72
2023/10/20 00:40:24;;;;;;;25.00;14.80;;;;;;;13.71;100.00;98381.41;5028780;28;20037;-73
2023/10/20 00:42:50;;;;;;;24.02;14.23;;;;;;;13.71;100.00;98381.41;5040951;28;20120;-73
2023/10/20 00:45:15;;;;;;;20.25;13.65;;;;;;;13.71;100.00;98362.28;5045605;28;20108;-74
2023/10/20 00:47:44;;;;;;;21.00;12.93;;;;;;;13.68;100.00;98354.47;5027151;28;20029;-72
2023/10/20 00:50:14;;;;;;;25.05;14.32;;;;;;;13.64;100.00;98358.59;5010877;28;20534;-72
2023/10/20 00:52:49;;;;;;;24.52;14.77;;;;;;;13.61;100.00;98350.78;5042533;28;20052;-72
2023/10/20 00:55:15;;;;;;;20.25;14.23;;;;;;;13.60;100.00;98349.09;5030024;28;20080;-72
2023/10/20 00:57:43;;;;;;;22.77;14.05;;;;;;;13.54;100.00;98342.53;5028291;28;20831;-72
2023/10/20 01:00:10;;;;;;;22.92;14.07;;;;;;;13.55;100.00;98340.63;5029195;28;20045;-73
2023/10/20 01:02:39;;;;;;;22.10;14.75;;;;;;;13.54;100.00;98331.59;5033065;28;20506;-73
2023/10/20 01:05:14;;;;;;;24.90;15.73;;;;;;;13.52;100.00;98325.47;5045178;28;20512;-73
2023/10/20 01:07:40;;;;;;;26.48;14.57;;;;;;;13.51;100.00;98324.63;5043642;28;20037;-73
2023/10/20 01:10:06;;;;;;;33.40;14.75;;;;;;;13.49;100.00;98318.50;5029321;28;20055;-72
2023/10/20 01:12:35;;;;;;;25.35;14.10;;;;;;;13.48;100.00;98316.84;5040333;28;20033;-72
2023/10/20 01:15:04;;;;;;;25.23;14.82;;;;;;;13.49;100.00;98306.75;5046922;28;20217;-72
2023/10/20 01:17:30;;;;;;;25.63;14.93;;;;;;;13.49;100.00;98306.75;5033738;28;20060;-72
2023/10/20 01:19:56;;;;;;;27.90;15.70;;;;;;;13.51;100.00;98305.50;5027049;28;20495;-73
2023/10/20 01:22:22;;;;;;;29.73;15.88;;;;;;;13.51;100.00;98294.56;5011007;28;20033;-73
2023/10/20 01:24:47;;;;;;;25.88;15.50;;;;;;;13.52;100.00;98288.09;5028464;28;20416;-72
2023/10/20 01:27:13;;;;;;;24.90;14.68;;;;;;;13.52;100.00;98282.63;5028975;28;20497;-73
2023/10/20 01:29:38;;;;;;;26.17;14.32;;;;;;;13.53;100.00;98280.75;5027664;28;20026;-72
2023/10/20 01:32:04;;;;;;;26.10;15.52;;;;;;;13.50;100.00;98273.75;5017428;28;20057;-71
2023/10/20 01:34:29;;;;;;;27.38;16.52;;;;;;;13.52;100.00;98271.72;5026444;28;20041;-72
2023/10/20 01:36:55;;;;;;;29.02;15.43;;;;;;;13.53;100.00;98278.00;5026857;28;20036;-72
2023/10/20 01:39:20;;;;;;;25.15;14.88;;;;;;;13.53;100.00;98273.38;5028282;28;20026;-73
2023/10/20 01:41:46;;;;;;;32.88;16.67;;;;;;;13.54;100.00;98276.97;5036802;28;20094;-72
2023/10/20 01:44:13;;;;;;;27.58;16.25;;;;;;;13.53;100.00;98273.38;5040749;28;20449;-73
2023/10/20 01:46:38;;;;;;;26.63;15.98;;;;;;;13.54;100.00;98279.69;5026475;28;20044;-72
2023/10/20 01:49:05;;;;;;;28.65;16.02;;;;;;;13.54;100.00;98279.69;5029357;28;20044;-72
2023/10/20 01:51:31;;;;;;;24.70;15.40;;;;;;;13.56;100.00;98265.84;5026008;28;20480;-73
2023/10/20 01:53:58;;;;;;;28.58;16.40;;;;;;;13.55;100.00;98261.41;5039334;28;20536;-72
2023/10/20 01:56:23;;;;;;;27.48;16.25;;;;;;;13.56;100.00;98253.03;5028442;28;20382;-72
2023/10/20 01:58:49;;;;;;;27.77;16.50;;;;;;;13.57;100.00;98252.00;5041196;28;20030;-73
2023/10/20 02:01:14;;;;;;;35.20;16.38;;;;;;;13.56;100.00;98249.44;5035417;28;20512;-73
2023/10/20 02:03:40;;;;;;;26.02;16.13;;;;;;;13.56;100.00;98243.97;5027083;28;20481;-72
2023/10/20 02:06:05;;;;;;;28.58;15.75;;;;;;;13.58;100.00;98231.84;5027637;28;20041;-72
2023/10/20 02:08:32;;;;;;;28.92;16.58;;;;;;;13.56;100.00;98231.16;5028091;28;20045;-73
2023/10/20 02:10:58;;;;;;;27.15;15.63;;;;;;;13.53;100.00;98215.19;5048195;28;20132;-72
2023/10/20 02:13:23;;;;;;;28.20;16.05;;;;;;;13.55;100.00;98217.72;5046574;28;20112;-74
2023/10/20 02:15:50;;;;;;;27.10;15.70;;;;;;;13.56;100.00;98213.94;5045902;28;20040;-73
2023/10/20 02:18:17;;;;;;;28.52;16.63;;;;;;;13.57;100.00;98218.34;5036254;28;20033;-73
2023/10/20 02:20:56;;;;;;;28.40;15.90;;;;;;;13.56;100.00;98220.25;5026114;28;20021;-72
2023/10/20 02:23:22;;;;;;;25.17;15.70;;;;;;;13.57;100.00;98213.75;5025720;28;20128;-72
2023/10/20 02:25:56;;;;;;;23.75;14.98;;;;;;;13.56;100.00;98195.66;5027156;28;20133;-72
2023/10/20 02:28:21;;;;;;;26.70;14.98;;;;;;;13.58;100.00;98193.59;5032929;28;20485;-72
2023/10/20 02:30:47;;;;;;;24.52;14.98;;;;;;;13.59;100.00;98183.50;5027917;28;20056;-72
2023/10/20 02:33:12;;;;;;;33.25;16.15;;;;;;;13.59;100.00;98184.34;5035305;28;20450;-73
2023/10/20 02:35:39;;;;;;;29.63;15.70;;;;;;;13.57;100.00;98175.50;5046805;28;20386;-72
2023/10/20 02:38:05;;;;;;;26.42;15.02;;;;;;;13.57;100.00;98175.50;5043166;28;20077;-72
2023/10/20 02:40:30;;;;;;;23.75;15.25;;;;;;;13.56;100.00;98165.59;5047416;28;20123;-73
2023/10/20 02:42:55;;;;;;;28.73;15.20;;;;;;;13.57;100.00;98160.97;5047700;28;20032;-73
2023/10/20 02:45:21;;;;;;;25.40;14.93;;;;;;;13.57;100.00;98150.06;5045939;28;20071;-72
2023/10/20 02:47:46;;;;;;;25.55;14.75;;;;;;;13.56;100.00;98154.69;5041791;28;20041;-72
2023/10/20 02:50:12;;;;;;;25.80;14.80;;;;;;;13.55;100.00;98153.00;5026286;28;20049;-72
2023/10/20 02:52:38;;;;;;;25.23;15.75;;;;;;;13.54;100.00;98148.56;5028042;28;20453;-72
2023/10/20 02:55:03;;;;;;;23.85;14.43;;;;;;;13.53;100.00;98136.81;5027556;28;20026;-73
2023/10/20 02:57:29;;;;;;;25.85;15.32;;;;;;;13.51;100.00;98127.13;5027570;28;20468;-72
2023/10/20 02:59:55;;;;;;;26.45;15.65;;;;;;;13.50;100.00;98118.06;5027141;28;20128;-73
2023/10/20 03:02:22;;;;;;;25.42;16.48;;;;;;;13.49;100.00;98129.22;5028536;28;22062;-72
2023/10/20 03:04:51;;;;;;;24.73;15.55;;;;;;;13.48;100.00;98117.44;5047260;28;20021;-73
2023/10/20 03:07:20;;;;;;;26.48;16.23;;;;;;;13.45;100.00;98101.44;5043655;28;20033;-72
2023/10/20 03:09:46;;;;;;;27.13;15.65;;;;;;;13.48;100.00;98094.75;5026020;28;20048;-72
2023/10/20 03:12:11;;;;;;;27.38;15.48;;;;;;;13.48;100.00;98083.81;5026115;28;20029;-72
2023/10/20 03:14:37;;;;;;;27.50;15.88;;;;;;;13.47;100.00;98084.84;5025587;28;20404;-72
2023/10/20 03:17:03;;;;;;;24.35;15.32;;;;;;;13.47;100.00;98096.59;5038209;28;20120;-72
2023/10/20 03:19:28;;;;;;;27.02;15.68;;;;;;;13.45;100.00;98093.25;5008653;28;20513;-73
2023/10/20 03:21:54;;;;;;;26.90;16.77;;;;;;;13.45;100.00;98095.97;5024957;28;20041;-72
2023/10/20 03:24:19;;;;;;;27.48;14.95;;;;;;;13.46;100.00;98091.34;5043169;28;20125;-75
2023/10/20 03:26:44;;;;;;;28.15;15.57;;;;;;;13.45;100.00;98095.97;5028336;28;20121;-72
2023/10/20 03:29:10;;;;;;;29.42;15.95;;;;;;;13.41;100.00;98081.03;5025070;28;20045;-72
2023/10/20 03:31:35;;;;;;;27.73;17.02;;;;;;;13.42;100.00;98079.97;5026748;28;20432;-72
2023/10/20 03:34:01;;;;;;;26.92;15.43;;;;;;;13.44;100.00;98077.91;5030115;28;20068;-72
2023/10/20 03:36:27;;;;;;;26.65;14.95;;;;;;;13.43;100.00;98068.03;5046305;28;20443;-73
2023/10/20 03:38:52;;;;;;;27.35;14.75;;;;;;;13.42;100.00;98060.84;5044028;28;20422;-72
2023/10/20 03:41:18;;;;;;;26.10;15.93;;;;;;;13.43;100.00;98054.38;5032491;28;20125;-72
2023/10/20 03:43:44;;;;;;;23.38;15.23;;;;;;;13.42;100.00;98049.94;5041627;28;20099;-72
2023/10/20 03:46:13;;;;;;;27.05;16.80;;;;;;;13.43;100.00;98057.09;5008570;28;20544;-72
2023/10/20 03:48:40;;;;;;;30.60;15.75;;;;;;;13.43;100.00;98068.03;5024340;28;20041;-72
2023/10/20 03:51:10;;;;;;;26.10;14.52;;;;;;;13.42;100.00;98066.31;5024475;28;20430;-73
2023/10/20 03:53:52;;;;;;;28.15;15.50;;;;;;;13.41;100.00;98061.91;5026459;28;20048;-72
2023/10/20 03:56:18;;;;;;;26.98;15.85;;;;;;;13.44;100.00;98044.28;5026980;28;20117;-73
2023/10/20 03:58:46;;;;;;;27.17;15.65;;;;;;;13.42;100.00;98027.25;5025010;28;20067;-73
2023/10/20 04:01:11;;;;;;;27.77;16.15;;;;;;;13.43;100.00;98028.91;5024835;28;20539;-74
2023/10/20 04:03:38;;;;;;;27.73;16.17;;;;;;;13.42;100.00;98027.25;5025721;28;20029;-72
2023/10/20 04:06:08;;;;;;;29.67;16.58;;;;;;;13.41;100.00;98034.59;5024468;28;20045;-72
2023/10/20 04:08:34;;;;;;;26.27;15.63;;;;;;;13.41;100.00;98031.88;5037310;28;20055;-73
2023/10/20 04:10:59;;;;;;;24.80;14.98;;;;;;;13.41;100.00;98036.47;5033306;28;20037;-73
2023/10/20 04:13:25;;;;;;;27.85;15.63;;;;;;;13.39;100.00;98024.94;5026444;28;20056;-72
2023/10/20 04:15:54;;;;;;;26.52;16.17;;;;;;;13.40;100.00;98005.59;5037565;28;20441;-74
2023/10/20 04:18:20;;;;;;;28.70;15.30;;;;;;;13.39;100.00;97998.47;5044969;28;20562;-73
2023/10/20 04:20:48;;;;;;;28.92;16.75;;;;;;;13.38;100.00;97999.50;5045829;28;20037;-72
2023/10/20 04:23:16;;;;;;;26.33;14.52;;;;;;;13.38;100.00;97999.50;5036795;28;20044;-72
2023/10/20 04:25:55;;;;;;;23.30;14.48;;;;;;;13.36;100.00;97979.72;5026167;28;20144;-74
2023/10/20 04:28:41;;;;;;;26.17;14.52;;;;;;;13.37;100.00;97975.94;5025025;28;20452;-73
2023/10/20 04:47:36;;;;;;;29.55;17.20;;;;;;;13.31;100.00;97949.44;5029867;28;20033;-73
2023/10/20 04:57:50;;;;;;;32.58;18.58;;;;;;;13.31;100.00;97905.78;5029308;28;20073;-73
2023/10/20 05:08:21;;;;;;;28.83;18.25;;;;;;;13.33;100.00;97887.28;5033585;28;20041;-74
2023/10/20 05:10:44;;;;;;;32.17;17.63;;;;;;;13.32;100.00;97884.75;5039623;28;20059;-71
2023/10/20 05:13:11;;;;;;;29.55;18.63;;;;;;;13.30;100.00;97875.94;5029436;28;20481;-72
2023/10/20 05:15:40;;;;;;;32.50;18.55;;;;;;;13.31;100.00;97880.34;5028786;28;20033;-71
2023/10/20 05:18:11;;;;;;;34.65;18.92;;;;;;;13.31;100.00;97881.19;5028838;28;20037;-72
2023/10/20 05:20:37;;;;;;;31.90;17.73;;;;;;;13.31;100.00;97873.00;5028224;28;20041;-71
2023/10/20 05:23:03;;;;;;;34.42;19.52;;;;;;;13.31;100.00;97867.53;5032643;28;20037;-73
2023/10/20 05:25:28;;;;;;;37.35;20.08;;;;;;;13.31;100.00;97856.63;5032183;28;20389;-71
2023/10/20 05:27:54;;;;;;;36.65;19.38;;;;;;;13.31;100.00;97850.31;5029056;28;20033;-72
2023/10/20 05:30:19;;;;;;;35.08;20.05;;;;;;;13.30;100.00;97843.19;5038863;28;20044;-73
2023/10/20 05:32:46;;;;;;;35.35;20.45;;;;;;;13.30;100.00;97851.38;5028572;28;20045;-71
2023/10/20 05:35:12;;;;;;;33.78;19.23;;;;;;;13.29;100.00;97858.72;5030773;28;20037;-73
2023/10/20 05:37:37;;;;;;;34.10;20.65;;;;;;;13.30;100.00;97870.50;5027656;28;20038;-72
2023/10/20 05:40:03;;;;;;;35.20;20.48;;;;;;;13.30;100.00;97865.03;5033688;28;20124;-72
2023/10/20 05:42:29;;;;;;;38.80;21.27;;;;;;;13.32;100.00;97871.94;5028619;28;20167;-72
2023/10/20 05:45:09;;;;;;;36.72;22.45;;;;;;;13.33;100.00;97886.44;5028529;28;20041;-72
2023/10/20 05:47:35;;;;;;;36.30;22.08;;;;;;;13.33;100.00;97856.41;5026589;28;20092;-72
2023/10/20 05:50:02;;;;;;;39.67;22.80;;;;;;;13.33;100.00;97854.53;5031405;28;20091;-72
2023/10/20 05:52:28;;;;;;;39.03;22.83;;;;;;;13.31;100.00;97861.25;5044080;28;20083;-71
2023/10/20 05:54:56;;;;;;;40.83;21.85;;;;;;;13.33;100.00;97856.41;5026584;28;20049;-72
2023/10/20 05:57:24;;;;;;;39.63;22.58;;;;;;;13.33;100.00;97854.53;5027803;28;20072;-72
2023/10/20 05:59:50;;;;;;;33.75;22.10;;;;;;;13.33;100.00;97850.94;5028348;28;20034;-72
2023/10/20 06:02:16;;;;;;;36.42;22.17;;;;;;;13.34;100.00;97845.31;5028869;28;20033;-71
2023/10/20 06:04:41;;;;;;;38.22;23.60;;;;;;;13.32;100.00;97841.91;5027527;28;20021;-71
2023/10/20 06:07:07;;;;;;;33.60;21.10;;;;;;;13.33;100.00;97838.13;5027838;28;20033;-73
2023/10/20 06:09:32;;;;;;;33.63;21.73;;;;;;;13.34;100.00;97825.34;5028408;28;20600;-71
2023/10/20 06:11:59;;;;;;;37.00;21.73;;;;;;;13.34;100.00;97833.53;5028679;28;20533;-71
2023/10/20 06:14:24;;;;;;;37.35;21.40;;;;;;;13.33;100.00;97827.22;5028338;28;20029;-72
2023/10/20 06:16:50;;;;;;;31.38;20.08;;;;;;;13.32;100.00;97828.28;5028544;28;20091;-71
2023/10/20 06:19:15;;;;;;;32.00;19.98;;;;;;;13.31;100.00;97834.78;5026246;28;20515;-71
2023/10/20 06:21:42;;;;;;;34.28;20.45;;;;;;;13.32;100.00;97849.28;5042168;28;20103;-70
2023/10/20 06:24:11;;;;;;;31.02;19.58;;;;;;;13.31;100.00;97850.31;5031326;28;20045;-71
2023/10/20 06:26:36;;;;;;;32.45;20.55;;;;;;;13.32;100.00;97844.66;5043273;28;20040;-71
2023/10/20 06:29:02;;;;;;;36.22;20.50;;;;;;;13.31;100.00;97815.66;5046500;28;20041;-71
2023/10/20 06:36:49;;;;;;;30.60;19.67;;;;;;;13.31;100.00;97817.56;5027556;28;20080;-71
2023/10/20 06:39:18;;;;;;;35.78;21.00;;;;;;;13.33;100.00;97826.38;5040113;28;20545;-70
2023/10/20 06:41:44;;;;;;;34.30;21.13;;;;;;;13.34;100.00;97830.81;5039722;28;20095;-71
2023/10/20 06:44:18;;;;;;;35.05;20.85;;;;;;;13.34;100.00;97833.53;5026974;28;20041;-71
2023/10/20 06:46:43;;;;;;;34.80;21.45;;;;;;;13.34;100.00;97837.13;5027177;28;20112;-71
2023/10/20 06:49:09;;;;;;;31.88;21.60;;;;;;;13.34;100.00;97818.00;5026582;28;20026;-72
2023/10/20 06:51:35;;;;;;;36.38;21.90;;;;;;;13.35;100.00;97818.84;5026961;28;20087;-70
2023/10/20 06:54:01;;;;;;;37.70;22.02;;;;;;;13.36;100.00;97809.59;5027096;28;20052;-70
2023/10/20 06:56:26;;;;;;;34.80;22.23;;;;;;;13.37;100.00;97812.13;5041060;28;20518;-70
2023/10/20 06:58:52;;;;;;;34.08;20.95;;;;;;;13.36;100.00;97807.72;5047238;28;20139;-70
2023/10/20 07:01:18;;;;;;;32.60;21.05;;;;;;;13.36;100.00;97813.16;5046205;28;20033;-70
2023/10/20 07:03:43;;;;;;;29.52;19.55;;;;;;;13.37;100.00;97803.09;5044578;28;20033;-70
2023/10/20 07:06:10;;;;;;;33.78;20.88;;;;;;;13.38;100.00;97808.38;5033622;28;20533;-71
2023/10/20 07:08:36;;;;;;;34.72;21.77;;;;;;;13.37;100.00;97808.53;5037072;28;20124;-71
2023/10/20 07:11:05;;;;;;;32.58;20.60;;;;;;;13.39;100.00;97811.94;5035512;28;20116;-70
2023/10/20 07:13:31;;;;;;;32.45;19.23;;;;;;;13.40;100.00;97806.25;5025549;28;20040;-70
2023/10/20 07:15:57;;;;;;;32.00;20.42;;;;;;;13.38;100.00;97802.91;5031639;28;20091;-71
2023/10/20 07:18:23;;;;;;;31.42;19.00;;;;;;;13.39;100.00;97799.13;5030172;28;20633;-70
2023/10/20 07:20:48;;;;;;;31.33;19.30;;;;;;;13.38;100.00;97799.31;5026279;28;20355;-71
2023/10/20 07:23:14;;;;;;;29.50;19.65;;;;;;;13.38;100.00;97805.63;5026714;28;20103;-71
2023/10/20 07:25:39;;;;;;;27.00;17.20;;;;;;;13.38;100.00;97808.38;5032890;28;20118;-70
2023/10/20 07:28:04;;;;;;;25.20;16.15;;;;;;;13.36;100.00;97796.78;5046847;28;20047;-71
2023/10/20 07:30:30;;;;;;;28.58;18.05;;;;;;;13.34;100.00;97801.63;5046221;28;20131;-71
2023/10/20 07:32:56;;;;;;;28.95;17.33;;;;;;;13.36;100.00;97795.94;5043617;28;20710;-71
2023/10/20 07:35:22;;;;;;;23.67;15.65;;;;;;;13.36;100.00;97795.94;5045706;28;20501;-70
2023/10/20 07:37:47;;;;;;;22.25;14.45;;;;;;;13.36;100.00;97804.13;5041892;28;20167;-71
2023/10/20 07:40:13;;;;;;;24.40;14.70;;;;;;;13.34;100.00;97804.34;5030666;28;20033;-70
2023/10/20 07:42:39;;;;;;;22.88;15.15;;;;;;;13.35;100.00;97799.72;5045351;28;20120;-70
2023/10/20 07:45:06;;;;;;;23.25;14.98;;;;;;;13.33;100.00;97791.72;5046449;28;20435;-70
2023/10/20 07:47:32;;;;;;;23.73;15.65;;;;;;;13.29;100.00;97779.56;5028057;28;20033;-70
2023/10/20 07:49:57;;;;;;;20.20;14.30;;;;;;;13.32;100.00;97790.03;5043808;28;20029;-71
2023/10/20 07:52:24;;;;;;;22.05;14.75;;;;;;;13.32;100.00;97789.19;5044310;28;20060;-71
2023/10/20 07:54:49;;;;;;;24.08;15.20;;;;;;;13.32;100.00;97783.75;5027014;28;20037;-70
2023/10/20 07:57:18;;;;;;;22.50;14.43;;;;;;;13.30;100.00;97778.50;5046552;28;20393;-70
2023/10/20 07:59:44;;;;;;;24.50;16.05;;;;;;;13.27;100.00;97774.28;5043551;28;20041;-71
2023/10/20 08:02:10;;;;;;;20.40;13.63;;;;;;;13.27;100.00;97766.09;5046140;28;20117;-71
2023/10/20 08:04:36;;;;;;;21.70;12.65;;;;;;;13.26;100.00;97761.66;5045357;28;20472;-70
2023/10/20 08:07:03;;;;;;;20.15;13.15;;;;;;;13.26;100.00;97763.56;5044290;28;20045;-72
2023/10/20 08:09:29;;;;;;;21.27;12.15;;;;;;;13.23;100.00;97763.97;5043999;28;20021;-71
2023/10/20 08:11:54;;;;;;;20.45;11.80;;;;;;;13.20;100.00;97764.34;5027870;28;20513;-71
2023/10/20 08:14:20;;;;;;;16.23;10.70;;;;;;;13.18;100.00;97760.97;5027792;28;20075;-71
2023/10/20 08:16:47;;;;;;;15.73;11.48;;;;;;;13.17;100.00;97768.31;5042064;28;20032;-72
2023/10/20 08:19:13;;;;;;;15.98;11.10;;;;;;;13.15;100.00;97770.44;5035758;28;20028;-71
2023/10/20 08:21:38;;;;;;;13.93;10.18;;;;;;;13.14;100.00;97767.88;5029528;28;20477;-70
2023/10/20 08:24:05;;;;;;;14.77;9.70;;;;;;;13.09;100.00;97763.03;5044400;28;20756;-70
2023/10/20 08:26:31;;;;;;;13.65;9.60;;;;;;;13.10;100.00;97769.31;5044816;28;20117;-70
2023/10/20 08:28:57;;;;;;;13.75;9.52;;;;;;;13.06;100.00;97765.34;5028533;28;20037;-70
2023/10/20 08:31:25;;;;;;;17.23;10.60;;;;;;;13.05;100.00;97766.38;5042687;28;20123;-72
2023/10/20 08:33:52;;;;;;;15.93;9.73;;;;;;;13.06;100.00;97773.53;5029606;28;20507;-70
2023/10/20 08:36:22;;;;;;;13.18;9.18;;;;;;;13.02;100.00;97775.81;5030117;28;20091;-70
2023/10/20 08:38:52;;;;;;;13.00;9.02;;;;;;;13.00;100.00;97769.69;5028887;28;20030;-70
2023/10/20 08:41:22;;;;;;;11.43;8.55;;;;;;;12.99;100.00;97770.75;5030477;28;20033;-71
2023/10/20 08:43:49;;;;;;;11.45;8.13;;;;;;;12.96;100.00;97763.84;5030422;28;20044;-71
2023/10/20 08:46:18;;;;;;;12.02;7.97;;;;;;;12.93;100.00;97752.47;5029406;28;20078;-70
2023/10/20 08:48:45;;;;;;;13.20;8.68;;;;;;;12.92;100.00;97748.06;5028853;28;20041;-71
2023/10/20 08:51:13;;;;;;;11.43;8.05;;;;;;;12.92;100.00;97756.25;5027623;28;20029;-71
2023/10/20 08:53:39;;;;;;;10.88;7.63;;;;;;;12.89;100.00;97756.66;5029513;28;20486;-71
2023/10/20 08:56:06;;;;;;;10.10;7.43;;;;;;;12.83;100.00;97761.03;5029928;28;20045;-71
2023/10/20 08:58:33;;;;;;;9.23;6.60;;;;;;;12.82;100.00;97767.50;5028132;28;20033;-71
2023/10/20 09:00:59;;;;;;;10.13;6.32;;;;;;;12.77;100.00;97761.81;5029206;28;20116;-71
2023/10/20 09:03:26;;;;;;;8.70;5.90;;;;;;;12.76;100.00;97762.84;5029199;28;20045;-72
2023/10/20 09:05:52;;;;;;;7.35;5.18;;;;;;;12.71;100.00;97763.47;5029021;28;20036;-70
2023/10/20 09:08:18;;;;;;;6.20;4.75;;;;;;;12.68;100.00;97758.44;5030104;28;20040;-71
2023/10/20 09:10:45;;;;;;;7.70;4.85;;;;;;;12.65;100.00;97758.81;5032204;28;20428;-71
2023/10/20 09:13:11;;;;;;;6.45;4.97;;;;;;;12.66;100.00;97767.84;5028946;28;20405;-71
2023/10/20 09:15:37;;;;;;;6.65;5.32;;;;;;;12.65;100.00;97758.81;5029179;28;20540;-71
2023/10/20 09:18:06;;;;;;;6.43;4.53;;;;;;;12.64;100.00;97757.13;5028848;28;20125;-71
2023/10/20 09:20:32;;;;;;;5.85;4.20;;;;;;;12.61;100.00;97764.88;5027942;28;20034;-71
2023/10/20 09:22:57;;;;;;;8.15;4.53;;;;;;;12.58;100.00;97754.34;5028877;28;20553;-71
2023/10/20 09:25:23;;;;;;;4.72;3.75;;;;;;;12.56;100.00;97751.84;5028976;28;20107;-70
2023/10/20 09:27:48;;;;;;;6.57;3.88;;;;;;;12.54;100.00;97729.34;5029588;28;20075;-70
2023/10/20 09:30:14;;;;;;;5.63;3.95;;;;;;;12.52;100.00;97731.47;5034566;28;20048;-70
2023/10/20 09:32:39;;;;;;;4.90;3.50;;;;;;;12.51;100.00;97746.97;5028775;28;20033;-70
2023/10/20 09:35:06;;;;;;;3.30;2.92;;;;;;;12.48;100.00;97747.38;5027999;28;20374;-71
2023/10/20 09:37:31;;;;;;;3.40;3.03;;;;;;;12.48;100.00;97752.81;5030177;28;20041;-69
2023/10/20 09:40:07;;;;;;;3.58;3.17;;;;;;;12.48;100.00;97760.16;5046938;28;20469;-69
2023/10/20 09:43:18;;;;;;;4.60;3.05;;;;;;;12.48;100.00;97755.56;5027423;28;20045;-71
2023/10/20 09:45:48;;;;;;;4.15;2.55;;;;;;;12.43;100.00;97749.03;5028373;28;20056;-71
2023/10/20 09:48:18;;;;;;;3.20;2.67;;;;;;;12.40;100.00;97746.69;5028054;28;20042;-72
2023/10/20 09:50:46;;;;;;;4.25;2.60;;;;;;;12.38;100.00;97751.50;5027529;28;20095;-71
2023/10/20 09:53:17;;;;;;;3.17;2.70;;;;;;;12.36;100.00;97751.72;5028338;28;20025;-71
2023/10/20 09:55:47;;;;;;;3.45;2.80;;;;;;;12.36;100.00;97748.97;5028849;28;20058;-71
2023/10/20 09:58:22;;;;;;;4.47;2.50;;;;;;;12.33;100.00;97741.19;5045578;28;20052;-71
2023/10/20 10:00:48;;;;;;;2.80;2.20;;;;;;;12.29;100.00;97737.16;5048718;28;20068;-71
2023/10/20 10:03:13;;;;;;;2.75;2.30;;;;;;;12.35;100.00;97743.72;5047777;28;20048;-71
2023/10/20 10:05:40;;;;;;;4.18;2.45;;;;;;;12.35;100.00;97747.28;5044950;28;20396;-71
2023/10/20 10:08:07;;;;;;;3.00;2.40;;;;;;;12.37;100.00;97749.81;5028120;28;20040;-71
2023/10/20 10:10:36;;;;;;;2.35;2.15;;;;;;;12.35;100.00;97752.72;5027950;28;20553;-71
2023/10/20 10:13:05;;;;;;;2.97;2.40;;;;;;;12.37;100.00;97742.47;5028177;28;20095;-71
2023/10/20 10:15:37;;;;;;;2.63;2.22;;;;;;;12.38;100.00;97741.44;5031009;28;20448;-70
2023/10/20 10:18:11;;;;;;;3.17;2.30;;;;;;;12.39;100.00;97734.09;5045114;28;20040;-72
2023/10/20 10:20:42;;;;;;;5.25;2.60;;;;;;;12.41;100.00;97732.03;5046791;28;20029;-71
2023/10/20 10:23:10;;;;;;;3.63;2.53;;;;;;;12.40;100.00;97736.66;5042637;28;20034;-71
2023/10/20 10:25:39;;;;;;;3.38;2.78;;;;;;;12.41;100.00;97735.59;5030373;28;20037;-71
2023/10/20 10:28:24;;;;;;;3.75;2.47;;;;;;;12.42;100.00;97725.53;5043116;28;20099;-70
2023/10/20 10:30:52;;;;;;;4.00;3.13;;;;;;;12.44;100.00;97732.44;5028045;28;20136;-71
2023/10/20 10:33:22;;;;;;;3.65;3.35;;;;;;;12.45;100.00;97722.38;5026643;28;20068;-71
2023/10/20 10:35:48;;;;;;;3.60;3.20;;;;;;;12.46;100.00;97714.03;5027013;28;20083;-71
2023/10/20 10:38:24;;;;;;;3.50;3.17;;;;;;;12.48;100.00;97717.38;5027457;28;20045;-70
2023/10/20 10:40:52;;;;;;;3.80;3.33;;;;;;;12.51;100.00;97708.81;5027911;28;20053;-71
2023/10/20 10:43:19;;;;;;;4.22;3.60;;;;;;;12.55;100.00;97701.06;5026822;28;20041;-71
2023/10/20 10:45:50;;;;;;;3.55;3.25;;;;;;;12.58;100.00;97708.84;5009436;28;20029;-71
2023/10/20 10:48:16;;;;;;;4.72;3.65;;;;;;;12.60;100.00;97695.03;5027019;28;20674;-71
2023/10/20 10:50:47;;;;;;;3.92;3.53;;;;;;;12.59;100.00;97686.00;5024770;28;20037;-72
2023/10/20 10:53:13;;;;;;;3.78;3.45;;;;;;;12.60;100.00;97684.09;5030237;28;20481;-71
2023/10/20 10:55:40;;;;;;;3.72;3.42;;;;;;;12.60;100.00;97686.84;5032301;28;20044;-71
2023/10/20 10:58:14;;;;;;;3.40;3.10;;;;;;;12.59;100.00;97683.28;5029661;28;20393;-71
2023/10/20 11:00:41;;;;;;;3.40;3.08;;;;;;;12.61;100.00;97681.16;5027017;28;20048;-70
2023/10/20 11:03:08;;;;;;;3.63;3.03;;;;;;;12.63;100.00;97678.22;5034701;28;20136;-70
2023/10/20 11:05:34;;;;;;;3.03;2.83;;;;;;;12.64;100.00;97672.59;5045888;28;20029;-70
2023/10/20 11:08:08;;;;;;;4.35;3.38;;;;;;;12.64;100.00;97671.75;5040896;28;20187;-71
2023/10/20 11:10:36;;;;;;;3.40;3.10;;;;;;;12.62;100.00;97660.19;5031994;28;20045;-71
2023/10/20 11:13:06;;;;;;;3.17;2.88;;;;;;;12.60;100.00;97648.66;5047010;28;20116;-71
2023/10/20 11:15:32;;;;;;;3.45;3.15;;;;;;;12.61;100.00;97647.59;5046587;28;20114;-71
2023/10/20 11:18:04;;;;;;;3.78;3.47;;;;;;;12.61;100.00;97645.72;5046569;28;20028;-71
2023/10/20 11:20:33;;;;;;;5.05;3.80;;;;;;;12.63;100.00;97646.34;5035988;28;20042;-71
2023/10/20 11:23:00;;;;;;;4.90;4.40;;;;;;;12.65;100.00;97641.53;5031720;28;20554;-71
2023/10/20 11:25:26;;;;;;;4.78;4.22;;;;;;;12.67;100.00;97635.88;5041783;28;20037;-71
2023/10/20 11:27:56;;;;;;;5.50;5.00;;;;;;;12.70;100.00;97632.75;5026928;28;20033;-71
2023/10/20 11:30:42;;;;;;;5.18;4.75;;;;;;;12.72;100.00;97630.66;5026050;28;20191;-71
2023/10/20 11:33:11;;;;;;;5.57;5.07;;;;;;;12.70;100.00;97628.13;5025008;28;20037;-71
2023/10/20 11:35:37;;;;;;;5.28;4.78;;;;;;;12.71;100.00;97634.44;5025607;28;20038;-70
2023/10/20 11:38:03;;;;;;;6.15;5.47;;;;;;;12.72;100.00;97620.56;5031873;28;20040;-71
2023/10/20 11:40:28;;;;;;;9.80;5.65;;;;;;;12.77;100.00;97612.63;5041401;28;20041;-71
2023/10/20 11:42:55;;;;;;;7.00;5.70;;;;;;;12.84;100.00;97611.81;5026504;28;20389;-70
2023/10/20 11:45:20;;;;;;;7.20;6.50;;;;;;;12.89;100.00;97615.59;5030200;28;20036;-71
2023/10/20 11:47:46;;;;;;;7.65;6.95;;;;;;;12.95;100.00;97617.50;5045409;28;20106;-71
2023/10/20 11:50:11;;;;;;;7.72;6.97;;;;;;;12.97;100.00;97612.69;5045154;28;20056;-72
2023/10/20 11:52:38;;;;;;;10.45;6.47;;;;;;;12.98;100.00;97606.19;5043277;28;20025;-71